sensor_id;sensor_type;location;lat;lon;timestamp;noise_LAeq;noise_LA_min;noise_LA_max;noise_LA01;noise_LA95
67324;Laerm;57667;51.438;5.968;2023-01-01T00:00:10;65.69;54.32;83.36;;
67324;Laerm;57667;51.438;5.968;2023-01-01T00:00:21;53.15;45.38;62.78;;
67324;Laerm;57667;51.438;5.968;2023-01-01T00:00:31;59.82;48.65;70.60;;
67324;Laerm;57667;51.438;5.968;2023-01-01T00:00:42;58.64;49.60;68.81;;
67324;Laerm;57667;51.438;5.968;2023-01-01T00:00:52;48.92;46.84;51.95;;
67324;Laerm;57667;51.438;5.968;2023-01-01T00:01:08;65.94;47.81;79.68;;
67324;Laerm;57667;51.438;5.968;2023-01-01T00:01:19;53.72;48.14;62.48;;
67324;Laerm;57667;51.438;5.968;2023-01-01T00:01:30;52.77;46.01;62.60;;
67324;Laerm;57667;51.438;5.968;2023-01-01T00:01:40;49.50;43.85;62.38;;
67324;Laerm;57667;51.438;5.968;2023-01-01T00:01:51;60.33;43.32;76.44;;
67324;Laerm;57667;51.438;5.968;2023-01-01T00:02:01;62.08;47.96;79.93;;
67324;Laerm;57667;51.438;5.968;2023-01-01T00:02:11;53.45;48.65;58.73;;
67324;Laerm;57667;51.438;5.968;2023-01-01T00:02:22;51.66;48.09;61.50;;
67324;Laerm;57667;51.438;5.968;2023-01-01T00:02:32;48.03;43.89;57.43;;
67324;Laerm;57667;51.438;5.968;2023-01-01T00:02:46;46.76;42.68;51.26;;
67324;Laerm;57667;51.438;5.968;2023-01-01T00:02:59;47.56;42.34;58.40;;
67324;Laerm;57667;51.438;5.968;2023-01-01T00:03:09;46.24;42.37;56.15;;
67324;Laerm;57667;51.438;5.968;2023-01-01T00:03:19;44.81;41.41;49.48;;
67324;Laerm;57667;51.438;5.968;2023-01-01T00:03:30;47.55;43.05;56.92;;
67324;Laerm;57667;51.438;5.968;2023-01-01T00:03:41;46.70;43.76;53.14;;
67324;Laerm;57667;51.438;5.968;2023-01-01T00:03:54;43.65;41.32;46.67;;
67324;Laerm;57667;51.438;5.968;2023-01-01T00:04:06;44.44;40.86;57.19;;
67324;Laerm;57667;51.438;5.968;2023-01-01T00:04:17;57.16;42.50;72.06;;
67324;Laerm;57667;51.438;5.968;2023-01-01T00:04:28;48.58;43.86;56.44;;
67324;Laerm;57667;51.438;5.968;2023-01-01T00:04:38;52.49;45.16;66.67;;
67324;Laerm;57667;51.438;5.968;2023-01-01T00:04:48;57.95;50.52;73.28;;
67324;Laerm;57667;51.438;5.968;2023-01-01T00:04:59;54.78;44.15;66.56;;
67324;Laerm;57667;51.438;5.968;2023-01-01T00:05:09;48.26;42.47;59.55;;
67324;Laerm;57667;51.438;5.968;2023-01-01T00:05:19;46.29;42.20;52.84;;
67324;Laerm;57667;51.438;5.968;2023-01-01T00:05:30;49.83;43.11;59.17;;
67324;Laerm;57667;51.438;5.968;2023-01-01T00:05:40;63.36;52.47;74.96;;
67324;Laerm;57667;51.438;5.968;2023-01-01T00:05:51;59.60;50.27;69.76;;
67324;Laerm;57667;51.438;5.968;2023-01-01T00:06:07;50.33;45.31;60.84;;
67324;Laerm;57667;51.438;5.968;2023-01-01T00:06:18;57.26;44.85;71.91;;
67324;Laerm;57667;51.438;5.968;2023-01-01T00:06:28;53.31;44.23;63.16;;
67324;Laerm;57667;51.438;5.968;2023-01-01T00:06:39;49.88;43.06;59.18;;
67324;Laerm;57667;51.438;5.968;2023-01-01T00:06:49;53.05;45.83;64.77;;
67324;Laerm;57667;51.438;5.968;2023-01-01T00:07:00;58.24;47.84;67.11;;
67324;Laerm;57667;51.438;5.968;2023-01-01T00:07:10;56.08;47.40;64.11;;
67324;Laerm;57667;51.438;5.968;2023-01-01T00:07:21;49.02;44.31;55.83;;
67324;Laerm;57667;51.438;5.968;2023-01-01T00:07:31;46.49;43.53;50.70;;
67324;Laerm;57667;51.438;5.968;2023-01-01T00:07:41;56.15;47.43;63.42;;
67324;Laerm;57667;51.438;5.968;2023-01-01T00:07:52;49.32;44.53;58.05;;
67324;Laerm;57667;51.438;5.968;2023-01-01T00:08:02;52.48;45.09;64.31;;
67324;Laerm;57667;51.438;5.968;2023-01-01T00:08:12;56.16;44.06;65.14;;
67324;Laerm;57667;51.438;5.968;2023-01-01T00:08:23;47.62;43.19;56.29;;
67324;Laerm;57667;51.438;5.968;2023-01-01T00:08:33;51.27;46.67;59.19;;
67324;Laerm;57667;51.438;5.968;2023-01-01T00:08:44;47.45;43.93;51.78;;
67324;Laerm;57667;51.438;5.968;2023-01-01T00:08:54;48.92;44.82;56.88;;
67324;Laerm;57667;51.438;5.968;2023-01-01T00:09:23;53.99;41.29;72.89;;
67324;Laerm;57667;51.438;5.968;2023-01-01T00:09:52;60.31;43.47;73.73;;
67324;Laerm;57667;51.438;5.968;2023-01-01T00:10:21;60.51;44.20;74.06;;
67324;Laerm;57667;51.438;5.968;2023-01-01T00:10:37;49.87;44.44;60.69;;
67324;Laerm;57667;51.438;5.968;2023-01-01T00:10:48;62.33;50.24;77.21;;
67324;Laerm;57667;51.438;5.968;2023-01-01T00:11:04;52.63;46.91;59.91;;
67324;Laerm;57667;51.438;5.968;2023-01-01T00:11:15;52.56;46.80;62.27;;
67324;Laerm;57667;51.438;5.968;2023-01-01T00:11:25;53.46;46.90;60.96;;
67324;Laerm;57667;51.438;5.968;2023-01-01T00:11:36;54.38;46.18;66.01;;
67324;Laerm;57667;51.438;5.968;2023-01-01T00:11:46;56.89;48.23;66.27;;
67324;Laerm;57667;51.438;5.968;2023-01-01T00:11:57;62.13;48.46;73.68;;
67324;Laerm;57667;51.438;5.968;2023-01-01T00:12:08;66.13;47.40;78.09;;
67324;Laerm;57667;51.438;5.968;2023-01-01T00:12:18;56.96;44.90;70.86;;
67324;Laerm;57667;51.438;5.968;2023-01-01T00:12:30;56.33;46.43;67.49;;
67324;Laerm;57667;51.438;5.968;2023-01-01T00:12:40;53.79;45.84;66.18;;
67324;Laerm;57667;51.438;5.968;2023-01-01T00:12:50;50.21;46.26;58.25;;
67324;Laerm;57667;51.438;5.968;2023-01-01T00:13:01;51.45;46.03;60.50;;
67324;Laerm;57667;51.438;5.968;2023-01-01T00:13:12;55.90;45.47;68.68;;
67324;Laerm;57667;51.438;5.968;2023-01-01T00:13:22;61.63;46.38;74.51;;
67324;Laerm;57667;51.438;5.968;2023-01-01T00:13:33;50.18;44.97;58.99;;
67324;Laerm;57667;51.438;5.968;2023-01-01T00:13:44;56.23;49.87;64.57;;
67324;Laerm;57667;51.438;5.968;2023-01-01T00:13:54;68.13;53.87;77.13;;
67324;Laerm;57667;51.438;5.968;2023-01-01T00:14:04;77.68;49.55;99.78;;
67324;Laerm;57667;51.438;5.968;2023-01-01T00:14:15;55.62;47.86;72.12;;
67324;Laerm;57667;51.438;5.968;2023-01-01T00:14:25;50.88;45.58;59.20;;
67324;Laerm;57667;51.438;5.968;2023-01-01T00:14:37;47.67;41.96;59.45;;
67324;Laerm;57667;51.438;5.968;2023-01-01T00:14:51;58.31;41.86;75.34;;
67324;Laerm;57667;51.438;5.968;2023-01-01T00:15:04;46.99;42.70;59.82;;
67324;Laerm;57667;51.438;5.968;2023-01-01T00:15:18;56.36;42.70;72.86;;
67324;Laerm;57667;51.438;5.968;2023-01-01T00:15:28;52.13;42.55;65.82;;
67324;Laerm;57667;51.438;5.968;2023-01-01T00:15:38;58.46;44.53;72.16;;
67324;Laerm;57667;51.438;5.968;2023-01-01T00:15:49;49.20;43.26;59.71;;
67324;Laerm;57667;51.438;5.968;2023-01-01T00:16:05;46.41;41.67;55.47;;
67324;Laerm;57667;51.438;5.968;2023-01-01T00:16:16;44.79;39.23;56.11;;
67324;Laerm;57667;51.438;5.968;2023-01-01T00:16:29;44.82;40.38;50.35;;
67324;Laerm;57667;51.438;5.968;2023-01-01T00:17:00;47.89;43.36;56.02;;
67324;Laerm;57667;51.438;5.968;2023-01-01T00:17:10;53.53;46.55;63.11;;
67324;Laerm;57667;51.438;5.968;2023-01-01T00:17:21;54.26;45.40;65.05;;
67324;Laerm;57667;51.438;5.968;2023-01-01T00:17:31;51.94;46.23;60.01;;
67324;Laerm;57667;51.438;5.968;2023-01-01T00:17:41;50.26;44.49;60.05;;
67324;Laerm;57667;51.438;5.968;2023-01-01T00:17:52;52.94;43.63;65.15;;
67324;Laerm;57667;51.438;5.968;2023-01-01T00:18:03;58.32;45.00;69.55;;
67324;Laerm;57667;51.438;5.968;2023-01-01T00:18:13;56.62;50.30;61.38;;
67324;Laerm;57667;51.438;5.968;2023-01-01T00:18:23;49.12;44.92;56.10;;
67324;Laerm;57667;51.438;5.968;2023-01-01T00:18:34;57.41;45.19;72.94;;
67324;Laerm;57667;51.438;5.968;2023-01-01T00:18:44;49.51;41.18;64.29;;
67324;Laerm;57667;51.438;5.968;2023-01-01T00:18:54;44.57;41.88;48.76;;
67324;Laerm;57667;51.438;5.968;2023-01-01T00:19:05;49.26;43.51;53.00;;
67324;Laerm;57667;51.438;5.968;2023-01-01T00:19:15;49.86;46.24;54.55;;
67324;Laerm;57667;51.438;5.968;2023-01-01T00:19:25;48.71;44.90;55.19;;
67324;Laerm;57667;51.438;5.968;2023-01-01T00:19:36;51.32;45.03;59.46;;
67324;Laerm;57667;51.438;5.968;2023-01-01T00:19:47;49.78;45.48;60.48;;
67324;Laerm;57667;51.438;5.968;2023-01-01T00:19:57;53.66;44.50;64.01;;
67324;Laerm;57667;51.438;5.968;2023-01-01T00:20:08;43.53;41.30;47.47;;
67324;Laerm;57667;51.438;5.968;2023-01-01T00:20:18;42.56;40.67;44.70;;
67324;Laerm;57667;51.438;5.968;2023-01-01T00:20:29;43.36;40.49;51.03;;
67324;Laerm;57667;51.438;5.968;2023-01-01T00:20:39;43.36;41.63;45.94;;
67324;Laerm;57667;51.438;5.968;2023-01-01T00:20:49;53.95;42.04;72.18;;
67324;Laerm;57667;51.438;5.968;2023-01-01T00:21:01;51.73;48.11;58.35;;
67324;Laerm;57667;51.438;5.968;2023-01-01T00:21:12;55.90;48.71;67.92;;
67324;Laerm;57667;51.438;5.968;2023-01-01T00:21:23;57.67;47.28;68.97;;
67324;Laerm;57667;51.438;5.968;2023-01-01T00:21:33;52.62;45.17;64.09;;
67324;Laerm;57667;51.438;5.968;2023-01-01T00:21:43;45.30;42.94;49.89;;
67324;Laerm;57667;51.438;5.968;2023-01-01T00:21:55;45.78;43.35;50.56;;
67324;Laerm;57667;51.438;5.968;2023-01-01T00:22:05;48.84;44.64;62.07;;
67324;Laerm;57667;51.438;5.968;2023-01-01T00:22:16;59.19;45.51;69.25;;
67324;Laerm;57667;51.438;5.968;2023-01-01T00:22:26;51.03;42.77;61.21;;
67324;Laerm;57667;51.438;5.968;2023-01-01T00:22:37;51.02;45.05;58.30;;
67324;Laerm;57667;51.438;5.968;2023-01-01T00:22:47;46.70;41.04;58.15;;
67324;Laerm;57667;51.438;5.968;2023-01-01T00:22:58;45.37;40.97;53.34;;
67324;Laerm;57667;51.438;5.968;2023-01-01T00:23:08;45.97;41.48;55.04;;
67324;Laerm;57667;51.438;5.968;2023-01-01T00:23:18;48.81;44.56;58.00;;
67324;Laerm;57667;51.438;5.968;2023-01-01T00:23:29;46.85;43.47;54.90;;
67324;Laerm;57667;51.438;5.968;2023-01-01T00:23:39;48.92;44.14;57.87;;
67324;Laerm;57667;51.438;5.968;2023-01-01T00:23:50;51.46;45.23;59.62;;
67324;Laerm;57667;51.438;5.968;2023-01-01T00:24:01;65.71;49.67;76.64;;
67324;Laerm;57667;51.438;5.968;2023-01-01T00:24:11;64.22;51.69;75.59;;
67324;Laerm;57667;51.438;5.968;2023-01-01T00:24:21;56.58;48.22;68.88;;
67324;Laerm;57667;51.438;5.968;2023-01-01T00:24:32;59.04;45.56;73.39;;
67324;Laerm;57667;51.438;5.968;2023-01-01T00:24:42;57.57;47.82;70.59;;
67324;Laerm;57667;51.438;5.968;2023-01-01T00:24:52;55.11;44.66;67.17;;
67324;Laerm;57667;51.438;5.968;2023-01-01T00:25:03;48.97;43.72;57.51;;
67324;Laerm;57667;51.438;5.968;2023-01-01T00:25:14;52.75;45.36;64.34;;
67324;Laerm;57667;51.438;5.968;2023-01-01T00:25:24;51.64;44.27;61.78;;
67324;Laerm;57667;51.438;5.968;2023-01-01T00:25:34;61.00;47.07;69.98;;
67324;Laerm;57667;51.438;5.968;2023-01-01T00:25:45;53.98;50.25;59.57;;
67324;Laerm;57667;51.438;5.968;2023-01-01T00:25:55;49.53;43.89;60.24;;
67324;Laerm;57667;51.438;5.968;2023-01-01T00:26:12;46.90;43.98;54.52;;
67324;Laerm;57667;51.438;5.968;2023-01-01T00:26:23;47.09;43.04;56.93;;
67324;Laerm;57667;51.438;5.968;2023-01-01T00:26:33;46.09;42.54;52.71;;
67324;Laerm;57667;51.438;5.968;2023-01-01T00:26:43;54.08;43.81;65.27;;
67324;Laerm;57667;51.438;5.968;2023-01-01T00:26:54;52.47;43.92;62.70;;
67324;Laerm;57667;51.438;5.968;2023-01-01T00:27:04;69.03;53.39;80.99;;
67324;Laerm;57667;51.438;5.968;2023-01-01T00:27:14;58.71;45.96;70.59;;
67324;Laerm;57667;51.438;5.968;2023-01-01T00:27:24;50.80;44.75;59.38;;
67324;Laerm;57667;51.438;5.968;2023-01-01T00:27:35;47.83;43.95;55.74;;
67324;Laerm;57667;51.438;5.968;2023-01-01T00:27:45;54.43;46.50;63.85;;
67324;Laerm;57667;51.438;5.968;2023-01-01T00:27:55;47.10;43.13;52.24;;
67324;Laerm;57667;51.438;5.968;2023-01-01T00:28:06;43.81;41.46;49.20;;
67324;Laerm;57667;51.438;5.968;2023-01-01T00:28:18;49.06;42.18;57.90;;
67324;Laerm;57667;51.438;5.968;2023-01-01T00:28:29;44.56;41.83;52.09;;
67324;Laerm;57667;51.438;5.968;2023-01-01T00:28:39;46.10;42.48;57.79;;
67324;Laerm;57667;51.438;5.968;2023-01-01T00:28:49;44.19;41.61;49.93;;
67324;Laerm;57667;51.438;5.968;2023-01-01T00:29:00;50.23;43.98;57.79;;
67324;Laerm;57667;51.438;5.968;2023-01-01T00:29:10;52.23;48.05;62.28;;
67324;Laerm;57667;51.438;5.968;2023-01-01T00:29:21;52.71;47.78;64.99;;
67324;Laerm;57667;51.438;5.968;2023-01-01T00:29:31;62.54;49.94;74.78;;
67324;Laerm;57667;51.438;5.968;2023-01-01T00:29:42;54.38;50.26;61.48;;
67324;Laerm;57667;51.438;5.968;2023-01-01T00:29:52;51.62;44.99;60.44;;
67324;Laerm;57667;51.438;5.968;2023-01-01T00:30:02;54.68;46.52;63.78;;
67324;Laerm;57667;51.438;5.968;2023-01-01T00:30:13;62.54;53.13;70.75;;
67324;Laerm;57667;51.438;5.968;2023-01-01T00:30:23;61.76;50.74;71.87;;
67324;Laerm;57667;51.438;5.968;2023-01-01T00:30:34;54.13;45.70;61.98;;
67324;Laerm;57667;51.438;5.968;2023-01-01T00:30:44;56.22;46.56;66.08;;
67324;Laerm;57667;51.438;5.968;2023-01-01T00:30:54;48.98;43.16;58.52;;
67324;Laerm;57667;51.438;5.968;2023-01-01T00:31:19;49.22;45.31;61.09;;
67324;Laerm;57667;51.438;5.968;2023-01-01T00:31:30;57.77;47.56;65.59;;
67324;Laerm;57667;51.438;5.968;2023-01-01T00:31:41;56.17;47.22;65.01;;
67324;Laerm;57667;51.438;5.968;2023-01-01T00:31:51;49.57;43.89;61.78;;
67324;Laerm;57667;51.438;5.968;2023-01-01T00:32:01;49.98;44.94;58.24;;
67324;Laerm;57667;51.438;5.968;2023-01-01T00:32:12;52.04;48.30;62.46;;
67324;Laerm;57667;51.438;5.968;2023-01-01T00:32:22;52.17;44.95;66.81;;
67324;Laerm;57667;51.438;5.968;2023-01-01T00:32:32;47.53;44.21;52.06;;
67324;Laerm;57667;51.438;5.968;2023-01-01T00:32:43;46.69;43.18;53.30;;
67324;Laerm;57667;51.438;5.968;2023-01-01T00:32:54;47.26;42.37;55.38;;
67324;Laerm;57667;51.438;5.968;2023-01-01T00:33:05;47.22;42.35;55.76;;
67324;Laerm;57667;51.438;5.968;2023-01-01T00:33:15;45.26;41.84;53.42;;
67324;Laerm;57667;51.438;5.968;2023-01-01T00:33:25;45.91;42.44;50.20;;
67324;Laerm;57667;51.438;5.968;2023-01-01T00:33:36;46.05;42.97;53.57;;
67324;Laerm;57667;51.438;5.968;2023-01-01T00:33:49;46.64;42.70;51.77;;
67324;Laerm;57667;51.438;5.968;2023-01-01T00:34:00;47.58;42.87;56.62;;
67324;Laerm;57667;51.438;5.968;2023-01-01T00:34:10;47.65;44.07;55.26;;
67324;Laerm;57667;51.438;5.968;2023-01-01T00:34:20;53.43;46.04;62.87;;
67324;Laerm;57667;51.438;5.968;2023-01-01T00:34:31;60.29;51.07;73.47;;
67324;Laerm;57667;51.438;5.968;2023-01-01T00:34:41;58.75;47.90;69.78;;
67324;Laerm;57667;51.438;5.968;2023-01-01T00:34:51;54.44;48.22;61.80;;
67324;Laerm;57667;51.438;5.968;2023-01-01T00:35:02;51.12;45.91;60.97;;
67324;Laerm;57667;51.438;5.968;2023-01-01T00:35:12;61.85;49.20;75.12;;
67324;Laerm;57667;51.438;5.968;2023-01-01T00:35:23;54.24;45.26;62.94;;
67324;Laerm;57667;51.438;5.968;2023-01-01T00:35:33;51.75;45.39;58.30;;
67324;Laerm;57667;51.438;5.968;2023-01-01T00:35:44;50.95;46.87;58.37;;
67324;Laerm;57667;51.438;5.968;2023-01-01T00:35:54;48.43;46.13;53.40;;
67324;Laerm;57667;51.438;5.968;2023-01-01T00:36:23;57.76;46.77;70.08;;
67324;Laerm;57667;51.438;5.968;2023-01-01T00:36:33;58.24;45.60;75.04;;
67324;Laerm;57667;51.438;5.968;2023-01-01T00:36:44;50.33;44.35;62.27;;
67324;Laerm;57667;51.438;5.968;2023-01-01T00:36:54;51.21;43.88;57.98;;
67324;Laerm;57667;51.438;5.968;2023-01-01T00:37:05;52.63;45.82;59.37;;
67324;Laerm;57667;51.438;5.968;2023-01-01T00:37:21;51.71;47.67;58.72;;
67324;Laerm;57667;51.438;5.968;2023-01-01T00:37:34;48.71;43.62;58.42;;
67324;Laerm;57667;51.438;5.968;2023-01-01T00:37:45;49.27;43.88;61.39;;
67324;Laerm;57667;51.438;5.968;2023-01-01T00:37:55;53.20;44.68;66.09;;
67324;Laerm;57667;51.438;5.968;2023-01-01T00:38:05;52.00;44.90;61.25;;
67324;Laerm;57667;51.438;5.968;2023-01-01T00:38:16;49.61;41.12;61.68;;
67324;Laerm;57667;51.438;5.968;2023-01-01T00:38:29;43.78;40.49;54.53;;
67324;Laerm;57667;51.438;5.968;2023-01-01T00:38:42;52.18;41.44;66.20;;
67324;Laerm;57667;51.438;5.968;2023-01-01T00:38:53;60.47;47.54;73.40;;
67324;Laerm;57667;51.438;5.968;2023-01-01T00:39:04;55.42;48.79;66.89;;
67324;Laerm;57667;51.438;5.968;2023-01-01T00:39:14;52.00;44.05;61.12;;
67324;Laerm;57667;51.438;5.968;2023-01-01T00:39:24;52.78;43.20;63.47;;
67324;Laerm;57667;51.438;5.968;2023-01-01T00:39:35;46.42;41.27;54.32;;
67324;Laerm;57667;51.438;5.968;2023-01-01T00:39:45;44.75;41.41;51.64;;
67324;Laerm;57667;51.438;5.968;2023-01-01T00:39:58;46.66;42.88;57.47;;
67324;Laerm;57667;51.438;5.968;2023-01-01T00:40:09;59.81;44.05;69.97;;
67324;Laerm;57667;51.438;5.968;2023-01-01T00:40:23;56.18;43.35;70.48;;
67324;Laerm;57667;51.438;5.968;2023-01-01T00:40:36;52.56;44.26;65.52;;
67324;Laerm;57667;51.438;5.968;2023-01-01T00:40:46;54.39;45.99;62.23;;
67324;Laerm;57667;51.438;5.968;2023-01-01T00:40:57;50.61;44.50;57.58;;
67324;Laerm;57667;51.438;5.968;2023-01-01T00:41:07;55.03;47.12;65.26;;
67324;Laerm;57667;51.438;5.968;2023-01-01T00:41:20;55.41;49.62;64.12;;
67324;Laerm;57667;51.438;5.968;2023-01-01T00:41:31;56.09;46.18;70.01;;
67324;Laerm;57667;51.438;5.968;2023-01-01T00:41:41;54.81;47.33;68.53;;
67324;Laerm;57667;51.438;5.968;2023-01-01T00:41:51;61.90;46.06;72.90;;
67324;Laerm;57667;51.438;5.968;2023-01-01T00:42:02;51.88;44.45;63.48;;
67324;Laerm;57667;51.438;5.968;2023-01-01T00:42:12;48.46;45.19;53.76;;
67324;Laerm;57667;51.438;5.968;2023-01-01T00:42:22;57.91;47.00;70.30;;
67324;Laerm;57667;51.438;5.968;2023-01-01T00:42:33;59.47;47.72;76.63;;
67324;Laerm;57667;51.438;5.968;2023-01-01T00:42:43;53.48;44.97;62.81;;
67324;Laerm;57667;51.438;5.968;2023-01-01T00:42:53;68.49;55.47;81.38;;
67324;Laerm;57667;51.438;5.968;2023-01-01T00:43:05;60.42;51.34;71.80;;
67324;Laerm;57667;51.438;5.968;2023-01-01T00:43:15;67.55;51.81;78.47;;
67324;Laerm;57667;51.438;5.968;2023-01-01T00:43:29;59.66;54.17;68.89;;
67324;Laerm;57667;51.438;5.968;2023-01-01T00:43:41;54.02;47.27;61.73;;
67324;Laerm;57667;51.438;5.968;2023-01-01T00:43:52;54.87;43.49;65.24;;
67324;Laerm;57667;51.438;5.968;2023-01-01T00:44:03;47.78;44.00;55.10;;
67324;Laerm;57667;51.438;5.968;2023-01-01T00:44:14;51.86;44.15;61.25;;
67324;Laerm;57667;51.438;5.968;2023-01-01T00:44:27;49.53;44.79;59.95;;
67324;Laerm;57667;51.438;5.968;2023-01-01T00:44:37;50.65;46.24;61.67;;
67324;Laerm;57667;51.438;5.968;2023-01-01T00:44:48;63.81;47.71;76.97;;
67324;Laerm;57667;51.438;5.968;2023-01-01T00:45:01;53.68;46.41;64.84;;
67324;Laerm;57667;51.438;5.968;2023-01-01T00:45:11;52.20;47.91;59.28;;
67324;Laerm;57667;51.438;5.968;2023-01-01T00:45:22;52.58;47.11;61.43;;
67324;Laerm;57667;51.438;5.968;2023-01-01T00:45:32;47.15;42.37;58.11;;
67324;Laerm;57667;51.438;5.968;2023-01-01T00:45:42;55.07;42.77;66.93;;
67324;Laerm;57667;51.438;5.968;2023-01-01T00:45:56;53.61;42.46;65.16;;
67324;Laerm;57667;51.438;5.968;2023-01-01T00:46:07;48.17;42.89;57.86;;
67324;Laerm;57667;51.438;5.968;2023-01-01T00:46:18;45.05;42.13;55.88;;
67324;Laerm;57667;51.438;5.968;2023-01-01T00:46:28;48.68;42.11;59.19;;
67324;Laerm;57667;51.438;5.968;2023-01-01T00:46:39;46.44;42.32;62.20;;
67324;Laerm;57667;51.438;5.968;2023-01-01T00:46:49;46.07;42.82;50.44;;
67324;Laerm;57667;51.438;5.968;2023-01-01T00:46:59;50.26;45.97;60.47;;
67324;Laerm;57667;51.438;5.968;2023-01-01T00:47:10;47.65;44.67;51.03;;
67324;Laerm;57667;51.438;5.968;2023-01-01T00:47:20;52.90;48.83;60.53;;
67324;Laerm;57667;51.438;5.968;2023-01-01T00:47:30;52.25;46.38;60.92;;
67324;Laerm;57667;51.438;5.968;2023-01-01T00:47:41;49.24;44.86;62.35;;
67324;Laerm;57667;51.438;5.968;2023-01-01T00:47:52;47.93;45.51;50.10;;
67324;Laerm;57667;51.438;5.968;2023-01-01T00:48:02;49.68;45.66;57.05;;
67324;Laerm;57667;51.438;5.968;2023-01-01T00:48:13;49.02;42.98;56.55;;
67324;Laerm;57667;51.438;5.968;2023-01-01T00:48:23;54.36;47.98;63.83;;
67324;Laerm;57667;51.438;5.968;2023-01-01T00:48:33;54.39;49.82;64.86;;
67324;Laerm;57667;51.438;5.968;2023-01-01T00:48:44;56.78;48.58;66.09;;
67324;Laerm;57667;51.438;5.968;2023-01-01T00:48:54;51.11;45.73;60.48;;
67324;Laerm;57667;51.438;5.968;2023-01-01T00:49:04;51.55;45.72;61.65;;
67324;Laerm;57667;51.438;5.968;2023-01-01T00:49:15;53.13;45.49;64.08;;
67324;Laerm;57667;51.438;5.968;2023-01-01T00:49:25;58.37;48.52;70.56;;
67324;Laerm;57667;51.438;5.968;2023-01-01T00:49:36;58.23;50.49;67.88;;
67324;Laerm;57667;51.438;5.968;2023-01-01T00:49:47;50.33;46.72;56.90;;
67324;Laerm;57667;51.438;5.968;2023-01-01T00:49:57;52.68;47.01;68.78;;
67324;Laerm;57667;51.438;5.968;2023-01-01T00:50:07;57.11;48.39;68.61;;
67324;Laerm;57667;51.438;5.968;2023-01-01T00:50:18;61.66;47.32;74.45;;
67324;Laerm;57667;51.438;5.968;2023-01-01T00:50:29;53.23;46.49;63.78;;
67324;Laerm;57667;51.438;5.968;2023-01-01T00:50:39;55.62;46.62;68.04;;
67324;Laerm;57667;51.438;5.968;2023-01-01T00:50:50;52.48;48.90;61.06;;
67324;Laerm;57667;51.438;5.968;2023-01-01T00:51:00;52.03;45.61;66.71;;
67324;Laerm;57667;51.438;5.968;2023-01-01T00:51:11;60.58;44.53;73.16;;
67324;Laerm;57667;51.438;5.968;2023-01-01T00:51:21;60.60;47.68;75.13;;
67324;Laerm;57667;51.438;5.968;2023-01-01T00:51:32;56.44;46.45;67.60;;
67324;Laerm;57667;51.438;5.968;2023-01-01T00:51:42;54.82;46.99;62.72;;
67324;Laerm;57667;51.438;5.968;2023-01-01T00:51:52;51.42;44.03;62.48;;
67324;Laerm;57667;51.438;5.968;2023-01-01T00:52:03;61.13;46.36;78.19;;
67324;Laerm;57667;51.438;5.968;2023-01-01T00:52:13;53.93;47.30;62.86;;
67324;Laerm;57667;51.438;5.968;2023-01-01T00:52:23;56.72;52.63;66.30;;
67324;Laerm;57667;51.438;5.968;2023-01-01T00:52:34;55.39;52.24;62.90;;
67324;Laerm;57667;51.438;5.968;2023-01-01T00:52:44;60.89;52.74;72.12;;
67324;Laerm;57667;51.438;5.968;2023-01-01T00:52:54;52.54;48.55;57.73;;
67324;Laerm;57667;51.438;5.968;2023-01-01T00:53:04;61.90;46.78;76.43;;
67324;Laerm;57667;51.438;5.968;2023-01-01T00:53:15;55.14;47.56;64.84;;
67324;Laerm;57667;51.438;5.968;2023-01-01T00:53:25;54.40;44.43;64.99;;
67324;Laerm;57667;51.438;5.968;2023-01-01T00:53:37;50.30;44.16;60.08;;
67324;Laerm;57667;51.438;5.968;2023-01-01T00:53:48;53.41;42.83;66.17;;
67324;Laerm;57667;51.438;5.968;2023-01-01T00:53:58;45.72;42.36;51.67;;
67324;Laerm;57667;51.438;5.968;2023-01-01T00:54:08;47.17;41.48;54.01;;
67324;Laerm;57667;51.438;5.968;2023-01-01T00:54:19;59.70;40.83;75.99;;
67324;Laerm;57667;51.438;5.968;2023-01-01T00:54:29;46.39;41.59;57.07;;
67324;Laerm;57667;51.438;5.968;2023-01-01T00:54:39;52.27;47.85;59.55;;
67324;Laerm;57667;51.438;5.968;2023-01-01T00:54:50;59.83;45.06;74.60;;
67324;Laerm;57667;51.438;5.968;2023-01-01T00:55:03;49.13;43.28;62.97;;
67324;Laerm;57667;51.438;5.968;2023-01-01T00:55:13;58.08;42.12;75.09;;
67324;Laerm;57667;51.438;5.968;2023-01-01T00:55:24;46.90;42.82;53.22;;
67324;Laerm;57667;51.438;5.968;2023-01-01T00:55:34;52.56;43.32;66.17;;
67324;Laerm;57667;51.438;5.968;2023-01-01T00:55:45;56.31;45.44;70.68;;
67324;Laerm;57667;51.438;5.968;2023-01-01T00:55:56;57.92;47.49;73.85;;
67324;Laerm;57667;51.438;5.968;2023-01-01T00:56:06;65.14;50.25;77.15;;
67324;Laerm;57667;51.438;5.968;2023-01-01T00:56:17;54.70;48.94;61.20;;
67324;Laerm;57667;51.438;5.968;2023-01-01T00:56:27;62.13;49.33;75.35;;
67324;Laerm;57667;51.438;5.968;2023-01-01T00:56:38;60.00;52.80;68.83;;
67324;Laerm;57667;51.438;5.968;2023-01-01T00:56:48;54.78;50.13;62.45;;
67324;Laerm;57667;51.438;5.968;2023-01-01T00:56:58;54.66;47.41;65.00;;
67324;Laerm;57667;51.438;5.968;2023-01-01T00:57:08;52.90;44.80;61.39;;
67324;Laerm;57667;51.438;5.968;2023-01-01T00:57:19;45.39;43.42;50.35;;
67324;Laerm;57667;51.438;5.968;2023-01-01T00:57:29;47.05;43.20;58.58;;
67324;Laerm;57667;51.438;5.968;2023-01-01T00:57:40;61.91;47.04;75.48;;
67324;Laerm;57667;51.438;5.968;2023-01-01T00:57:50;58.98;48.94;71.14;;
67324;Laerm;57667;51.438;5.968;2023-01-01T00:58:01;53.59;49.17;61.82;;
67324;Laerm;57667;51.438;5.968;2023-01-01T00:58:11;62.72;48.36;76.47;;
67324;Laerm;57667;51.438;5.968;2023-01-01T00:58:22;54.85;46.60;64.49;;
67324;Laerm;57667;51.438;5.968;2023-01-01T00:58:33;56.63;45.58;68.65;;
67324;Laerm;57667;51.438;5.968;2023-01-01T00:58:43;62.32;48.40;72.93;;
67324;Laerm;57667;51.438;5.968;2023-01-01T00:58:54;50.07;44.29;59.36;;
67324;Laerm;57667;51.438;5.968;2023-01-01T00:59:04;56.64;47.46;66.92;;
67324;Laerm;57667;51.438;5.968;2023-01-01T00:59:15;49.15;44.68;56.63;;
67324;Laerm;57667;51.438;5.968;2023-01-01T00:59:25;52.63;46.43;62.39;;
67324;Laerm;57667;51.438;5.968;2023-01-01T00:59:35;48.49;41.12;59.05;;
67324;Laerm;57667;51.438;5.968;2023-01-01T00:59:46;61.12;41.25;77.14;;
67324;Laerm;57667;51.438;5.968;2023-01-01T00:59:56;53.58;44.96;69.87;;
67324;Laerm;57667;51.438;5.968;2023-01-01T01:00:06;47.51;41.26;56.70;;
67324;Laerm;57667;51.438;5.968;2023-01-01T01:00:17;43.57;39.24;54.94;;
67324;Laerm;57667;51.438;5.968;2023-01-01T01:00:27;60.66;39.53;77.26;;
67324;Laerm;57667;51.438;5.968;2023-01-01T01:00:38;43.01;40.21;49.40;;
67324;Laerm;57667;51.438;5.968;2023-01-01T01:00:48;42.47;39.96;46.42;;
67324;Laerm;57667;51.438;5.968;2023-01-01T01:00:59;56.57;39.30;73.77;;
67324;Laerm;57667;51.438;5.968;2023-01-01T01:01:09;42.16;38.84;47.76;;
67324;Laerm;57667;51.438;5.968;2023-01-01T01:01:20;55.00;41.57;65.24;;
67324;Laerm;57667;51.438;5.968;2023-01-01T01:01:30;48.38;42.64;55.91;;
67324;Laerm;57667;51.438;5.968;2023-01-01T01:01:42;49.60;44.66;57.53;;
67324;Laerm;57667;51.438;5.968;2023-01-01T01:01:52;45.17;41.50;52.79;;
67324;Laerm;57667;51.438;5.968;2023-01-01T01:02:02;44.17;40.75;52.16;;
67324;Laerm;57667;51.438;5.968;2023-01-01T01:02:13;54.66;41.84;64.29;;